createdAt,value
2018-08-04T00:01:40.184Z,10.67
2018-08-04T00:04:09.009Z,10.27
2018-08-04T00:06:38.138Z,10.20
2018-08-04T00:09:10.897Z,10.37
2018-08-04T00:11:40.590Z,10.83
2018-08-04T00:14:09.774Z,10.00
2018-08-04T00:16:38.382Z,10.67
2018-08-04T00:19:07.438Z,10.10
2018-08-04T00:21:36.176Z,10.63
2018-08-04T00:24:04.719Z,10.17
2018-08-04T00:26:34.318Z,9.90
2018-08-04T00:29:03.548Z,10.27
2018-08-04T00:31:33.350Z,9.63
2018-08-04T00:34:02.570Z,10.80
2018-08-04T00:36:31.268Z,10.37
2018-08-04T00:38:59.899Z,10.43
2018-08-04T00:41:28.439Z,10.07
2018-08-04T00:43:57.631Z,9.83
2018-08-04T00:46:26.260Z,10.90
2018-08-04T00:48:54.808Z,10.43
2018-08-04T00:51:23.427Z,10.90
2018-08-04T00:53:51.991Z,10.77
2018-08-04T00:56:20.678Z,9.57
2018-08-04T00:58:49.454Z,10.60
2018-08-04T01:01:18.062Z,10.07
2018-08-04T01:03:46.703Z,10.33
2018-08-04T01:06:15.228Z,9.83
2018-08-04T01:08:43.686Z,10.60
2018-08-04T01:11:12.654Z,9.97
2018-08-04T01:13:41.311Z,10.17
2018-08-04T01:16:10.494Z,10.33
2018-08-04T01:18:39.755Z,10.07
2018-08-04T01:21:08.467Z,9.33
2018-08-04T01:23:37.223Z,9.97
2018-08-04T01:26:06.624Z,10.60
2018-08-04T01:28:35.339Z,11.03
2018-08-04T01:31:04.032Z,10.20
2018-08-04T01:33:33.275Z,9.83
2018-08-04T01:36:01.894Z,9.70
2018-08-04T01:38:30.570Z,9.70
2018-08-04T01:40:59.581Z,10.87
2018-08-04T01:43:28.812Z,10.93
2018-08-04T01:45:57.158Z,10.57
2018-08-04T01:48:26.618Z,11.27
2018-08-04T01:50:55.975Z,9.83
2018-08-04T01:53:24.547Z,10.27
2018-08-04T01:55:53.626Z,10.57
2018-08-04T01:58:22.262Z,10.60
2018-08-04T02:00:51.631Z,10.00
2018-08-04T02:03:20.723Z,10.97
2018-08-04T02:05:49.235Z,10.00
2018-08-04T02:08:18.400Z,11.13
2018-08-04T02:10:46.923Z,11.27
2018-08-04T02:13:15.464Z,10.70
2018-08-04T02:15:44.054Z,10.17
2018-08-04T02:18:12.623Z,10.43
2018-08-04T02:20:41.463Z,10.97
2018-08-04T02:23:09.968Z,10.33
2018-08-04T02:25:38.556Z,10.97
2018-08-04T02:28:07.230Z,10.83
2018-08-04T02:30:35.715Z,10.03
2018-08-04T02:33:04.442Z,10.13
2018-08-04T02:35:33.035Z,11.07
2018-08-04T02:38:01.640Z,10.50
2018-08-04T02:40:30.349Z,11.47
2018-08-04T02:42:59.642Z,10.93
2018-08-04T02:45:28.083Z,11.40
2018-08-04T02:47:56.690Z,11.13
2018-08-04T02:50:25.287Z,10.63
2018-08-04T02:52:54.526Z,11.43
2018-08-04T02:55:23.618Z,11.87
2018-08-04T02:57:52.067Z,11.10
2018-08-04T03:00:20.642Z,11.27
2018-08-04T03:02:49.441Z,11.10
2018-08-04T03:05:18.147Z,10.67
2018-08-04T03:07:46.741Z,11.03
2018-08-04T03:10:15.302Z,11.93
2018-08-04T03:12:44.512Z,11.70
2018-08-04T03:15:12.966Z,10.97
2018-08-04T03:17:41.612Z,11.10
2018-08-04T03:20:10.138Z,11.73
2018-08-04T03:22:39.032Z,11.83
2018-08-04T03:25:08.317Z,11.07
2018-08-04T03:27:36.794Z,12.30
2018-08-04T03:30:05.600Z,11.53
2018-08-04T03:32:34.238Z,12.07
2018-08-04T03:35:03.515Z,11.33
2018-08-04T03:37:32.687Z,11.63
2018-08-04T03:40:00.838Z,11.80
2018-08-04T03:42:29.395Z,11.97
2018-08-04T03:44:57.883Z,11.17
2018-08-04T03:47:26.623Z,12.23
2018-08-04T03:49:55.206Z,11.87
2018-08-04T03:52:24.328Z,11.03
2018-08-04T03:54:53.096Z,11.80
2018-08-04T03:57:21.767Z,11.50
2018-08-04T03:59:50.967Z,11.93
2018-08-04T04:02:19.700Z,11.30
2018-08-04T04:04:48.305Z,11.90
2018-08-04T04:07:16.876Z,12.00
2018-08-04T04:09:45.767Z,11.70
2018-08-04T04:12:14.426Z,11.77
2018-08-04T04:14:43.085Z,12.07
2018-08-04T04:17:12.195Z,11.87
2018-08-04T04:19:40.732Z,11.90
2018-08-04T04:22:09.408Z,11.23
2018-08-04T04:24:38.318Z,13.17
2018-08-04T04:27:07.379Z,12.07
2018-08-04T04:29:36.906Z,12.37
2018-08-04T04:32:05.898Z,13.27
2018-08-04T04:34:34.479Z,12.57
2018-08-04T04:37:03.330Z,12.37
2018-08-04T04:39:31.919Z,12.33
2018-08-04T04:42:00.453Z,12.33
2018-08-04T04:44:29.031Z,11.90
2018-08-04T04:46:57.523Z,12.13
2018-08-04T04:49:26.123Z,11.63
2018-08-04T04:51:54.698Z,11.40
2018-08-04T04:54:23.154Z,12.30
2018-08-04T04:56:52.203Z,11.83
2018-08-04T04:59:21.584Z,12.47
2018-08-04T05:01:50.772Z,12.97
2018-08-04T05:04:19.530Z,12.73
2018-08-04T05:06:48.219Z,11.57
2018-08-04T05:09:16.839Z,12.20
2018-08-04T05:11:45.486Z,12.50
2018-08-04T05:14:14.117Z,13.03
2018-08-04T05:16:42.723Z,11.63
2018-08-04T05:19:11.246Z,12.03
2018-08-04T05:21:39.931Z,12.80
2018-08-04T05:24:08.559Z,12.53
2018-08-04T05:26:37.187Z,12.03
2018-08-04T05:29:05.783Z,12.60
2018-08-04T05:31:34.462Z,12.77
2018-08-04T05:34:03.531Z,12.80
2018-08-04T05:36:32.071Z,13.37
2018-08-04T05:39:00.889Z,12.37
2018-08-04T05:41:29.458Z,11.80
2018-08-04T05:43:58.894Z,12.03
2018-08-04T05:46:27.664Z,11.40
2018-08-04T05:48:56.923Z,12.47
2018-08-04T05:51:25.554Z,12.17
2018-08-04T05:53:54.815Z,12.30
2018-08-04T05:56:23.775Z,12.57
2018-08-04T05:58:52.804Z,11.80
2018-08-04T06:01:21.487Z,11.03
2018-08-04T06:03:50.223Z,11.83
2018-08-04T06:06:18.714Z,10.50
2018-08-04T06:08:47.234Z,11.80
2018-08-04T06:11:15.702Z,10.27
2018-08-04T06:13:44.469Z,10.57
2018-08-04T06:16:12.989Z,11.17
2018-08-04T06:18:41.624Z,10.87
2018-08-04T06:21:10.107Z,11.03
2018-08-04T06:23:38.741Z,10.50
2018-08-04T06:26:07.357Z,10.87
2018-08-04T06:28:35.913Z,11.00
2018-08-04T06:31:04.543Z,10.97
2018-08-04T06:33:33.459Z,10.40
2018-08-04T06:36:02.627Z,10.80
2018-08-04T06:38:31.978Z,10.23
2018-08-04T06:41:00.512Z,10.17
2018-08-04T06:43:29.304Z,9.33
2018-08-04T06:45:57.962Z,9.37
2018-08-04T06:48:26.650Z,9.80
2018-08-04T06:50:55.406Z,10.77
2018-08-04T06:53:24.253Z,9.63
2018-08-04T06:55:53.175Z,10.13
2018-08-04T06:58:21.819Z,9.73
2018-08-04T07:00:50.280Z,10.10
2018-08-04T07:03:19.119Z,10.03
2018-08-04T07:05:47.643Z,9.80
2018-08-04T07:08:16.145Z,10.30
2018-08-04T07:10:44.820Z,10.10
2018-08-04T07:13:13.629Z,9.53
2018-08-04T07:15:42.427Z,8.80
2018-08-04T07:18:11.635Z,9.43
2018-08-04T07:20:40.260Z,8.83
2018-08-04T07:23:08.785Z,9.47
2018-08-04T07:25:37.290Z,8.80
2018-08-04T07:28:06.182Z,9.37
2018-08-04T07:30:34.727Z,9.17
2018-08-04T07:33:03.442Z,9.67
2018-08-04T07:35:32.315Z,9.10
2018-08-04T07:38:01.102Z,8.77
2018-08-04T07:40:30.255Z,9.70
2018-08-04T07:42:59.063Z,9.37
2018-08-04T07:45:27.782Z,8.80
2018-08-04T07:47:56.358Z,9.53
2018-08-04T07:50:24.944Z,8.73
2018-08-04T07:52:53.784Z,8.43
2018-08-04T07:55:22.426Z,12.70
2018-08-04T07:57:51.267Z,8.70
2018-08-04T08:00:19.742Z,9.00
2018-08-04T08:02:48.954Z,8.20
2018-08-04T08:05:17.766Z,8.07
2018-08-04T08:07:46.396Z,9.00
2018-08-04T08:10:15.599Z,8.20
2018-08-04T08:12:44.179Z,8.03
2018-08-04T08:15:12.934Z,7.90
2018-08-04T08:17:41.869Z,9.07
2018-08-04T08:20:10.555Z,7.93
2018-08-04T08:22:42.476Z,8.33
2018-08-04T08:25:11.174Z,8.37
2018-08-04T08:27:40.061Z,8.53
2018-08-04T08:30:12.340Z,8.33
2018-08-04T08:32:41.493Z,8.27
2018-08-04T08:35:10.787Z,7.97
2018-08-04T08:37:39.908Z,7.80
2018-08-04T08:40:09.061Z,7.97
2018-08-04T08:42:38.155Z,8.00
2018-08-04T08:45:08.435Z,7.83
2018-08-04T08:47:37.055Z,7.20
2018-08-04T08:50:07.947Z,7.27
2018-08-04T08:52:36.488Z,7.57
2018-08-04T08:55:05.490Z,7.07
2018-08-04T08:57:34.066Z,6.57
2018-08-04T09:00:03.154Z,5.70
2018-08-04T09:02:31.804Z,5.37
2018-08-04T09:05:00.316Z,5.77
2018-08-04T09:07:29.523Z,5.50
2018-08-04T09:09:58.116Z,5.43
2018-08-04T09:12:26.847Z,6.00
2018-08-04T09:14:55.565Z,5.53
2018-08-04T09:17:24.456Z,5.77
2018-08-04T09:19:53.075Z,6.33
2018-08-04T09:22:21.997Z,6.00
2018-08-04T09:24:50.506Z,6.20
2018-08-04T09:27:19.156Z,5.90
2018-08-04T09:29:47.856Z,6.27
2018-08-04T09:32:16.871Z,5.90
2018-08-04T09:34:45.661Z,5.67
2018-08-04T09:37:13.825Z,6.27
2018-08-04T09:39:42.558Z,5.53
2018-08-04T09:42:11.325Z,6.17
2018-08-04T09:44:40.049Z,6.17
2018-08-04T09:47:09.279Z,6.77
2018-08-04T09:49:37.903Z,5.97
2018-08-04T09:52:06.982Z,6.40
2018-08-04T09:54:36.346Z,5.70
2018-08-04T09:57:04.956Z,5.10
2018-08-04T09:59:33.527Z,5.10
2018-08-04T10:02:07.672Z,5.13
2018-08-04T10:04:36.925Z,5.50
2018-08-04T10:07:06.018Z,5.10
2018-08-04T10:09:35.269Z,5.47
2018-08-04T10:12:03.953Z,5.30
2018-08-04T10:14:33.098Z,5.90
2018-08-04T10:17:01.996Z,5.83
2018-08-04T10:19:30.755Z,5.50
2018-08-04T10:21:59.894Z,5.80
2018-08-04T10:24:28.661Z,5.47
2018-08-04T10:26:57.590Z,5.90
2018-08-04T10:29:26.102Z,5.37
2018-08-04T10:31:54.723Z,5.10
2018-08-04T10:34:23.514Z,5.30
2018-08-04T10:36:52.314Z,5.67
2018-08-04T10:39:21.027Z,5.13
2018-08-04T10:41:49.682Z,5.63
2018-08-04T10:44:18.422Z,5.73
2018-08-04T10:46:47.047Z,5.90
2018-08-04T10:49:15.665Z,5.50
2018-08-04T10:51:44.227Z,5.50
2018-08-04T10:54:12.881Z,5.40
2018-08-04T10:56:41.347Z,5.50
2018-08-04T10:59:10.022Z,5.17
2018-08-04T11:01:38.637Z,5.57
2018-08-04T11:04:07.211Z,5.63
2018-08-04T11:06:35.737Z,5.60
2018-08-04T11:09:06.783Z,5.33
2018-08-04T11:11:35.715Z,5.67
2018-08-04T11:14:05.387Z,5.43
2018-08-04T11:16:34.384Z,5.90
2018-08-04T11:19:04.041Z,5.33
2018-08-04T11:21:32.722Z,5.97
2018-08-04T11:24:01.328Z,5.37
2018-08-04T11:26:30.478Z,5.50
2018-08-04T11:28:59.590Z,5.80
2018-08-04T11:31:28.590Z,5.70
2018-08-04T11:33:57.451Z,6.17
2018-08-04T11:36:26.262Z,5.33
2018-08-04T11:38:54.959Z,5.57
2018-08-04T11:41:23.491Z,5.60
2018-08-04T11:43:52.066Z,5.90
2018-08-04T11:46:20.706Z,5.37
2018-08-04T11:48:49.285Z,5.53
2018-08-04T11:51:17.839Z,5.73
2018-08-04T11:53:47.005Z,5.20
2018-08-04T11:56:15.653Z,5.07
2018-08-04T11:58:44.367Z,5.30
2018-08-04T12:01:14.607Z,5.40
2018-08-04T12:03:43.215Z,5.50
2018-08-04T12:06:11.921Z,5.17
2018-08-04T12:08:40.653Z,5.57
2018-08-04T12:11:09.336Z,5.10
2018-08-04T12:13:37.967Z,5.60
2018-08-04T12:16:06.760Z,5.00
2018-08-04T12:18:35.250Z,5.40
2018-08-04T12:21:03.832Z,5.70
2018-08-04T12:23:32.442Z,5.47
2018-08-04T12:26:01.275Z,5.37
2018-08-04T12:28:29.869Z,5.43
2018-08-04T12:30:58.523Z,5.90
2018-08-04T12:33:27.429Z,5.70
2018-08-04T12:35:56.133Z,5.60
2018-08-04T12:38:25.640Z,6.07
2018-08-04T12:40:54.483Z,5.83
2018-08-04T12:43:23.269Z,5.63
2018-08-04T12:45:52.065Z,5.67
2018-08-04T12:48:21.389Z,5.23
2018-08-04T12:50:50.235Z,5.53
2018-08-04T12:53:19.580Z,5.93
2018-08-04T12:55:48.419Z,5.93
2018-08-04T12:58:17.523Z,6.30
2018-08-04T13:00:46.206Z,6.10
2018-08-04T13:03:15.494Z,6.37
2018-08-04T13:05:44.104Z,6.77
2018-08-04T13:08:13.089Z,6.30
2018-08-04T13:10:42.288Z,6.30
2018-08-04T13:13:10.991Z,6.13
2018-08-04T13:15:40.259Z,6.00
2018-08-04T13:18:08.913Z,6.13
2018-08-04T13:20:37.558Z,5.70
2018-08-04T13:23:06.275Z,6.00
2018-08-04T13:25:35.626Z,6.33
2018-08-04T13:28:04.373Z,6.57
2018-08-04T13:30:33.133Z,5.83
2018-08-04T13:33:02.286Z,6.10
2018-08-04T13:35:31.399Z,6.17
2018-08-04T13:38:00.229Z,5.73
2018-08-04T13:40:28.888Z,6.20
2018-08-04T13:42:57.458Z,5.77
2018-08-04T13:45:25.979Z,5.53
2018-08-04T13:47:54.624Z,5.80
2018-08-04T13:50:23.363Z,6.17
2018-08-04T13:52:52.143Z,5.97
2018-08-04T13:55:20.730Z,5.40
2018-08-04T13:57:49.565Z,5.73
2018-08-04T14:00:18.152Z,5.90
2018-08-04T14:02:46.722Z,6.23
2018-08-04T14:05:15.416Z,5.77
2018-08-04T14:07:44.611Z,5.90
2018-08-04T14:10:13.714Z,5.47
2018-08-04T14:12:43.285Z,6.37
2018-08-04T14:15:12.196Z,5.37
2018-08-04T14:17:40.673Z,5.43
2018-08-04T14:20:09.366Z,5.57
2018-08-04T14:22:37.986Z,5.47
2018-08-04T14:25:07.192Z,5.93
2018-08-04T14:27:35.883Z,5.60
2018-08-04T14:30:05.933Z,5.40
2018-08-04T14:32:34.494Z,5.40
2018-08-04T14:35:03.161Z,5.30
2018-08-04T14:37:31.688Z,5.43
2018-08-04T14:40:00.268Z,5.30
2018-08-04T14:42:29.461Z,5.10
2018-08-04T14:44:58.047Z,4.73
2018-08-04T14:47:26.770Z,4.90
2018-08-04T14:49:56.026Z,5.05
2018-08-04T14:52:24.612Z,4.90
2018-08-04T14:54:53.590Z,5.00
2018-08-04T14:57:22.410Z,4.70
2018-08-04T14:59:51.200Z,5.10
2018-08-04T15:02:20.695Z,4.50
2018-08-04T15:04:49.568Z,4.40
2018-08-04T15:07:18.042Z,4.70
2018-08-04T15:09:46.670Z,4.67
2018-08-04T15:12:15.527Z,4.70
2018-08-04T15:14:44.925Z,4.83
2018-08-04T15:17:13.894Z,4.40
2018-08-04T15:19:42.729Z,4.00
2018-08-04T15:22:11.954Z,4.47
2018-08-04T15:24:40.819Z,4.37
2018-08-04T15:27:09.746Z,4.37
2018-08-04T15:29:39.122Z,3.83
2018-08-04T15:32:07.914Z,4.20
2018-08-04T15:34:36.428Z,4.20
2018-08-04T15:37:05.132Z,4.17
2018-08-04T15:39:33.707Z,4.55
2018-08-04T15:42:02.450Z,4.00
2018-08-04T15:44:31.859Z,3.92
2018-08-04T15:47:00.688Z,4.55
2018-08-04T15:49:29.676Z,4.20
2018-08-04T15:51:58.284Z,4.12
2018-08-04T15:54:26.847Z,4.50
2018-08-04T15:56:55.484Z,4.40
2018-08-04T15:59:23.962Z,4.60
2018-08-04T16:01:52.644Z,4.80
2018-08-04T16:04:21.435Z,4.70
2018-08-04T16:06:50.183Z,4.55
2018-08-04T16:09:18.890Z,4.85
2018-08-04T16:11:47.632Z,5.15
2018-08-04T16:14:16.256Z,4.85
2018-08-04T16:16:45.379Z,4.70
2018-08-04T16:19:13.854Z,4.60
2018-08-04T16:21:42.656Z,4.65
2018-08-04T16:24:11.300Z,5.00
2018-08-04T16:26:39.615Z,5.10
2018-08-04T16:29:08.840Z,4.90
2018-08-04T16:31:37.639Z,5.17
2018-08-04T16:34:06.691Z,5.28
2018-08-04T16:36:35.380Z,5.35
2018-08-04T16:39:06.491Z,5.40
2018-08-04T16:41:35.125Z,5.20
2018-08-04T16:44:03.819Z,4.97
2018-08-04T16:46:32.399Z,5.35
2018-08-04T16:49:01.488Z,4.80
2018-08-04T16:51:30.366Z,5.25
2018-08-04T16:53:59.384Z,5.47
2018-08-04T16:56:28.122Z,5.40
2018-08-04T16:58:56.830Z,5.28
2018-08-04T17:01:25.650Z,5.15
2018-08-04T17:03:54.558Z,5.40
2018-08-04T17:06:23.196Z,4.97
2018-08-04T17:08:51.983Z,5.10
2018-08-04T17:11:20.578Z,5.10
2018-08-04T17:13:49.576Z,4.83
2018-08-04T17:16:18.212Z,4.80
2018-08-04T17:18:46.928Z,4.50
2018-08-04T17:21:16.417Z,4.62
2018-08-04T17:23:45.126Z,4.90
2018-08-04T17:26:13.985Z,4.92
2018-08-04T17:28:42.616Z,4.90
2018-08-04T17:31:11.480Z,4.87
2018-08-04T17:33:40.064Z,4.83
2018-08-04T17:36:08.960Z,5.22
2018-08-04T17:38:37.539Z,5.67
2018-08-04T17:41:06.326Z,4.87
2018-08-04T17:43:34.971Z,5.12
2018-08-04T17:46:03.871Z,5.50
2018-08-04T17:48:32.638Z,5.30
2018-08-04T17:51:01.995Z,5.40
2018-08-04T17:53:30.589Z,5.57
2018-08-04T17:55:59.488Z,5.43
2018-08-04T17:58:28.113Z,5.90
2018-08-04T18:00:56.791Z,5.83
2018-08-04T18:03:26.628Z,5.97
2018-08-04T18:05:55.363Z,6.20
2018-08-04T18:08:24.139Z,5.83
2018-08-04T18:10:52.791Z,6.30
2018-08-04T18:13:22.044Z,5.93
2018-08-04T18:15:50.646Z,5.83
2018-08-04T18:18:19.257Z,6.53
2018-08-04T18:20:48.091Z,5.97
2018-08-04T18:23:16.903Z,6.27
2018-08-04T18:25:45.655Z,6.40
2018-08-04T18:28:14.878Z,6.50
2018-08-04T18:30:43.420Z,6.10
2018-08-04T18:33:12.509Z,6.40
2018-08-04T18:35:41.491Z,6.53
2018-08-04T18:38:10.319Z,6.73
2018-08-04T18:40:38.937Z,6.70
2018-08-04T18:43:07.619Z,6.77
2018-08-04T18:45:36.399Z,6.90
2018-08-04T18:48:05.579Z,6.60
2018-08-04T18:50:34.252Z,6.60
2018-08-04T18:53:02.987Z,6.97
2018-08-04T18:55:31.653Z,6.60
2018-08-04T18:58:00.195Z,7.10
2018-08-04T19:00:28.826Z,7.30
2018-08-04T19:02:57.338Z,7.00
2018-08-04T19:05:25.979Z,6.37
2018-08-04T19:07:54.986Z,7.10
2018-08-04T19:10:23.515Z,7.10
2018-08-04T19:12:52.622Z,6.80
2018-08-04T19:15:21.356Z,7.53
2018-08-04T19:17:49.996Z,6.53
2018-08-04T19:20:18.782Z,7.30
2018-08-04T19:22:47.371Z,7.03
2018-08-04T19:25:16.206Z,8.17
2018-08-04T19:27:45.087Z,7.37
2018-08-04T19:30:13.579Z,7.47
2018-08-04T19:32:42.095Z,7.80
2018-08-04T19:35:10.795Z,7.70
2018-08-04T19:37:39.271Z,7.33
2018-08-04T19:40:07.908Z,7.50
2018-08-04T19:42:36.559Z,7.23
2018-08-04T19:45:05.223Z,8.33
2018-08-04T19:47:33.840Z,8.33
2018-08-04T19:50:02.624Z,8.17
2018-08-04T19:52:31.215Z,8.20
2018-08-04T19:55:00.054Z,7.80
2018-08-04T19:57:28.718Z,8.17
2018-08-04T19:59:57.506Z,7.77
2018-08-04T20:02:26.897Z,8.63
2018-08-04T20:04:55.650Z,7.90
2018-08-04T20:07:25.063Z,8.03
2018-08-04T20:09:54.009Z,8.17
2018-08-04T20:12:22.606Z,8.93
2018-08-04T20:14:51.871Z,9.77
2018-08-04T20:17:20.455Z,8.67
2018-08-04T20:19:49.110Z,9.20
2018-08-04T20:22:18.115Z,8.77
2018-08-04T20:24:46.774Z,9.23
2018-08-04T20:27:16.032Z,9.13
2018-08-04T20:29:44.726Z,8.67
2018-08-04T20:32:13.497Z,9.33
2018-08-04T20:34:42.743Z,9.17
2018-08-04T20:37:11.988Z,9.03
2018-08-04T20:39:40.474Z,9.10
2018-08-04T20:42:09.137Z,8.70
2018-08-04T20:44:37.829Z,8.70
2018-08-04T20:47:08.019Z,9.60
2018-08-04T20:49:36.643Z,9.60
2018-08-04T20:52:05.341Z,8.53
2018-08-04T20:54:34.113Z,9.07
2018-08-04T20:57:02.797Z,9.97
2018-08-04T20:59:31.993Z,8.97
2018-08-04T21:02:02.469Z,9.00
2018-08-04T21:04:32.265Z,9.70
2018-08-04T21:07:01.595Z,9.50
2018-08-04T21:09:31.139Z,9.30
2018-08-04T21:12:00.112Z,9.77
2018-08-04T21:14:29.373Z,9.70
2018-08-04T21:16:58.840Z,9.50
2018-08-04T21:19:27.852Z,9.07
2018-08-04T21:21:57.269Z,8.97
2018-08-04T21:24:26.755Z,9.70
2018-08-04T21:26:56.263Z,9.33
2018-08-04T21:29:25.165Z,10.47
2018-08-04T21:31:54.449Z,9.20
2018-08-04T21:34:23.143Z,9.90
2018-08-04T21:36:51.873Z,9.60
2018-08-04T21:39:20.928Z,10.13
2018-08-04T21:41:50.116Z,10.60
2018-08-04T21:44:18.973Z,9.90
2018-08-04T21:46:49.226Z,9.50
2018-08-04T21:49:18.649Z,9.37
2018-08-04T21:51:48.346Z,9.43
2018-08-04T21:54:19.921Z,10.40
2018-08-04T21:56:47.025Z,10.43
2018-08-04T21:59:16.381Z,9.17
2018-08-04T22:01:50.488Z,9.57
2018-08-04T22:04:19.507Z,10.57
2018-08-04T22:07:58.899Z,10.07
2018-08-04T22:10:27.478Z,9.23
2018-08-04T22:12:56.298Z,9.87
2018-08-04T22:15:24.788Z,9.57
2018-08-04T22:17:53.416Z,10.33
2018-08-04T22:20:22.937Z,10.07
2018-08-04T22:22:51.707Z,9.83
2018-08-04T22:25:21.677Z,11.07
2018-08-04T22:27:50.355Z,11.77
2018-08-04T22:30:20.111Z,11.43
2018-08-04T22:32:49.414Z,12.63
2018-08-04T22:35:18.172Z,10.83
2018-08-04T22:37:46.832Z,11.77
2018-08-04T22:40:16.083Z,12.10
2018-08-04T22:42:45.055Z,11.60
2018-08-04T22:45:57.396Z,12.70
2018-08-04T22:48:26.190Z,12.07
2018-08-04T22:50:54.929Z,10.90
2018-08-04T22:53:24.402Z,11.27
2018-08-04T22:55:53.148Z,10.90
2018-08-04T22:58:21.931Z,11.30
2018-08-04T23:00:50.555Z,12.50
2018-08-04T23:03:19.260Z,11.17
2018-08-04T23:05:47.978Z,11.10
2018-08-04T23:08:17.362Z,12.90
2018-08-04T23:10:46.077Z,12.53
2018-08-04T23:13:16.207Z,12.47
2018-08-04T23:15:45.177Z,12.23
2018-08-04T23:18:14.042Z,12.33
2018-08-04T23:20:42.660Z,11.83
2018-08-04T23:23:12.332Z,12.07
2018-08-04T23:25:40.930Z,11.90
2018-08-04T23:28:09.693Z,11.00
2018-08-04T23:30:38.138Z,12.00
2018-08-04T23:33:06.679Z,11.43
2018-08-04T23:35:36.053Z,11.63
2018-08-04T23:38:04.678Z,11.90
2018-08-04T23:40:33.259Z,12.07
2018-08-04T23:43:02.803Z,12.07
2018-08-04T23:45:31.526Z,12.03
2018-08-04T23:48:00.305Z,12.47
2018-08-04T23:50:29.418Z,12.50
2018-08-04T23:52:58.139Z,12.40
2018-08-04T23:55:26.803Z,12.13
2018-08-04T23:57:55.613Z,12.27
